Terminal Aerodrome Forecast
Issued by NWS Louisville, KY

Home | Current Version | Previous Version | Text Only | Print | Product List | Glossary On
Versions: 1 2 3 4 5 6 7 8 9 10 11 12 13
756
FTUS43 KLMK 272332
TAFLEX
TAF
KLEX 272332Z 2800/2824 22007KT P6SM VCTS SCT035CB OVC090
     FM280400 21005KT P6SM VCTS BKN040CB
     FM281200 25006KT 4SM -SHRA VCTS OVC015CB
     FM281700 31006KT 6SM -SHRA VCTS OVC021CB
     FM282100 35012KT P6SM -SHRA VCTS SCT025CB BKN035=

USA.gov is the U.S. government's official web portal to all federal, state and local government web resources and services.